Lambari d'Oeste, Brazil
Current Conditions -  °F | °C
As of 3:00 PM on Friday 24 Oct 2014 (Local Time) from SBCY Reporting Station
Broken Clouds Broken Clouds  
Wind Chill: 93°   Ceiling: 10000
Heat Index: 96°   Visibility: 6mi
Dew Point: 66°   Wind: 6mph
Humidity: 41%   Direction: 360°N
Pressure: 29.77"   Gusts: NA
Location:  15.32°S, 58°W
Report Text: SBCY 241800Z 36005KT 9999 FEW020 BKN100 34/19 Q1008
Loading
Personal Weather Stations






























Interactive Weather Map
Tropical Storm Tracking
New forecast layout! Learn more

10-Day Weather Forecast

Advertisements
Track Severe Weather on mobile